Temperatur und Luftfeuchte

Nummer Datum Zeit Sensor Temp Celsius Gef├╝hlte Temp Luftfeuchte in %
625 2018-12-15 03:50:49 ESP12E-S1 0.10 -2.18 63.20
624 2018-12-15 03:22:34 ESP12E-S1 0.10 -2.20 62.50
623 2018-12-15 02:54:19 ESP12E-S1 0.10 -2.22 62.00
622 2018-12-15 02:26:04 ESP12E-S1 0.10 -2.24 61.20
621 2018-12-15 01:57:49 ESP12E-S1 0.10 -2.25 60.70
620 2018-12-15 01:29:34 ESP12E-S1 0.10 -2.27 59.80
619 2018-12-15 01:01:18 ESP12E-S1 0.10 -2.28 59.40
618 2018-12-15 00:33:02 ESP12E-S1 0.10 -2.28 59.60
617 2018-12-15 00:04:51 ESP12E-S1 0.10 -2.30 58.80
616 2018-12-14 23:36:34 ESP12E-S1 0.10 -2.28 59.40
615 2018-12-14 23:08:19 ESP12E-S1 0.10 -2.31 58.50
614 2018-12-14 22:40:03 ESP12E-S1 0.20 -2.21 58.10
613 2018-12-14 22:11:48 ESP12E-S1 0.20 -2.20 58.40
612 2018-12-14 21:43:44 ESP12E-S1 0.10 -2.34 57.40
611 2018-12-14 21:15:27 ESP12E-S1 0.10 -2.31 58.30
610 2018-12-14 20:47:12 ESP12E-S1 0.10 -2.31 58.20
609 2018-12-14 20:18:57 ESP12E-S1 0.00 -2.43 58.10
608 2018-12-14 19:50:43 ESP12E-S1 0.10 -2.33 57.80
607 2018-12-14 19:22:27 ESP12E-S1 0.00 -2.45 57.20
606 2018-12-14 18:54:13 ESP12E-S1 0.10 -2.33 57.50
605 2018-12-14 18:25:57 ESP12E-S1 0.20 -2.21 57.90
604 2018-12-14 17:57:42 ESP12E-S1 0.20 -2.24 57.00
603 2018-12-14 17:29:28 ESP12E-S1 0.40 -1.98 58.40
602 2018-12-14 17:01:36 ESP12E-S1 0.50 -1.85 59.10
601 2018-12-14 16:33:26 ESP12E-S1 0.60 -1.75 58.90
600 2018-12-14 16:04:54 ESP12E-S1 0.70 -1.63 59.10
599 2018-12-14 15:36:24 ESP12E-S1 0.90 -1.42 58.80
598 2018-12-14 15:08:53 ESP12E-S1 1.20 -1.08 59.10
597 2018-12-14 14:03:08 ESP12E-S1 0.90 -1.39 59.80
596 2018-12-14 13:34:49 ESP12E-S1 0.70 -1.63 59.20
595 2018-12-14 13:06:32 ESP12E-S1 0.90 -1.39 59.90
594 2018-12-14 12:38:16 ESP12E-S1 0.80 -1.50 60.10
593 2018-12-14 12:10:00 ESP12E-S1 0.80 -1.49 60.40
592 2018-12-14 11:41:45 ESP12E-S1 0.70 -1.60 60.30
591 2018-12-14 11:13:30 ESP12E-S1 0.70 -1.59 60.70
590 2018-12-14 10:45:15 ESP12E-S1 0.60 -1.68 61.30
589 2018-12-14 10:16:59 ESP12E-S1 0.60 -1.70 60.80
588 2018-12-14 09:48:47 ESP12E-S1 0.50 -1.82 60.30
587 2018-12-14 09:20:30 ESP12E-S1 0.40 -1.91 61.00
586 2018-12-14 08:52:16 ESP12E-S1 0.40 -1.93 60.20
585 2018-12-14 08:24:01 ESP12E-S1 0.40 -1.90 61.40
584 2018-12-14 07:55:46 ESP12E-S1 0.40 -1.90 61.30
583 2018-12-14 07:27:31 ESP12E-S1 0.40 -1.91 61.20
582 2018-12-14 06:59:16 ESP12E-S1 0.40 -1.92 60.70
581 2018-12-14 06:31:00 ESP12E-S1 0.40 -1.93 60.20
580 2018-12-14 06:02:45 ESP12E-S1 0.40 -1.93 60.20
579 2018-12-14 05:34:31 ESP12E-S1 0.40 -1.94 59.90
578 2018-12-14 05:06:16 ESP12E-S1 0.40 -1.92 60.70
577 2018-12-14 04:37:39 ESP12E-S1 0.50 -1.79 61.30
576 2018-12-14 04:09:59 ESP12E-S1 0.60 -1.68 61.60
575 2018-12-14 03:39:35 ESP12E-S1 0.60 -1.68 61.40
574 2018-12-14 03:07:22 ESP12E-S1 0.70 -1.60 60.30
573 2018-12-14 02:39:08 ESP12E-S1 0.60 -1.70 60.80
572 2018-12-14 02:10:53 ESP12E-S1 0.70 -1.60 60.30
571 2018-12-14 01:42:38 ESP12E-S1 0.70 -1.58 61.10
570 2018-12-14 01:14:24 ESP12E-S1 0.70 -1.59 60.80
569 2018-12-14 00:46:09 ESP12E-S1 0.90 -1.36 61.10
568 2018-12-14 00:18:31 ESP12E-S1 0.80 -1.47 61.00
567 2018-12-13 23:50:10 ESP12E-S1 0.90 -1.37 60.80
566 2018-12-13 23:22:19 ESP12E-S1 1.00 -1.28 60.10
565 2018-12-13 22:54:03 ESP12E-S1 1.10 -1.16 60.40
564 2018-12-13 22:26:00 ESP12E-S1 1.10 -1.12 61.70
563 2018-12-13 21:56:52 ESP12E-S1 1.20 -1.04 60.80
562 2018-12-13 21:28:32 ESP12E-S1 1.20 -1.01 61.90
561 2018-12-13 21:00:17 ESP12E-S1 1.30 -0.89 62.20
560 2018-12-13 20:32:02 ESP12E-S1 1.30 -0.92 61.20
559 2018-12-13 20:03:47 ESP12E-S1 1.40 -0.81 61.00
558 2018-12-13 19:35:33 ESP12E-S1 1.50 -0.69 61.50
557 2018-12-13 19:07:38 ESP12E-S1 1.60 -0.59 60.90
556 2018-12-13 18:39:17 ESP12E-S1 1.60 -0.59 61.10
555 2018-12-13 18:11:02 ESP12E-S1 1.70 -0.45 62.10
554 2018-12-13 17:42:47 ESP12E-S1 1.80 -0.41 59.40
553 2018-12-13 17:14:35 ESP12E-S1 2.20 0.02 59.20
552 2018-12-13 16:46:20 ESP12E-S1 2.30 0.11 58.50
551 2018-12-13 16:17:58 ESP12E-S1 2.80 0.64 57.80
550 2018-12-13 15:50:08 ESP12E-S1 3.40 1.29 57.20
549 2018-12-13 15:15:10 ESP12E-S1 4.30 2.19 53.90
548 2018-12-13 14:47:00 ESP12E-S1 5.60 3.64 54.70
547 2018-12-13 14:18:27 ESP12E-S1 5.50 3.57 56.00
546 2018-12-13 13:50:15 ESP12E-S1 5.00 3.00 55.40
545 2018-12-13 13:22:00 ESP12E-S1 5.10 3.14 56.60
544 2018-12-13 12:53:42 ESP12E-S1 4.80 2.81 56.60
543 2018-12-13 12:25:23 ESP12E-S1 4.10 2.11 59.00
542 2018-12-13 11:57:05 ESP12E-S1 3.50 1.49 60.50
541 2018-12-13 11:28:46 ESP12E-S1 3.00 1.00 63.00
540 2018-12-13 11:00:27 ESP12E-S1 2.30 0.24 63.40
539 2018-12-13 10:32:09 ESP12E-S1 1.40 -0.65 67.00
538 2018-12-13 10:03:50 ESP12E-S1 0.70 -1.36 69.40
537 2018-12-13 09:35:35 ESP12E-S1 0.40 -1.64 71.40
536 2018-12-13 09:07:20 ESP12E-S1 0.30 -1.72 72.40
535 2018-12-13 08:39:05 ESP12E-S1 0.30 -1.72 72.70
534 2018-12-13 08:11:00 ESP12E-S1 0.30 -1.74 71.80
533 2018-12-13 07:42:44 ESP12E-S1 0.50 -1.51 72.10
532 2018-12-13 07:14:35 ESP12E-S1 0.70 -1.27 72.80
531 2018-12-13 06:46:21 ESP12E-S1 0.90 -1.03 73.80
530 2018-12-13 06:18:10 ESP12E-S1 1.30 -0.57 74.60
529 2018-12-13 05:49:57 ESP12E-S1 1.60 -0.22 75.20
528 2018-12-13 05:21:55 ESP12E-S1 1.80 0.04 76.60
527 2018-12-13 04:53:38 ESP12E-S1 2.00 0.26 76.90
526 2018-12-13 04:25:23 ESP12E-S1 2.00 0.26 76.80
525 2018-12-13 03:57:06 ESP12E-S1 2.00 0.24 76.00
524 2018-12-13 03:28:52 ESP12E-S1 1.90 0.09 74.40
523 2018-12-13 03:00:35 ESP12E-S1 1.80 -0.07 72.70
522 2018-12-13 02:32:20 ESP12E-S1 1.60 -0.22 75.40
521 2018-12-13 02:04:06 ESP12E-S1 1.90 0.21 79.20
520 2018-12-13 01:36:17 ESP12E-S1 2.10 0.44 79.50
519 2018-12-13 01:07:55 ESP12E-S1 2.50 0.87 79.20
518 2018-12-13 00:39:42 ESP12E-S1 2.80 1.18 78.20
517 2018-12-13 00:11:34 ESP12E-S1 3.10 1.50 77.90
516 2018-12-12 23:43:18 ESP12E-S1 3.10 1.49 77.70
515 2018-12-12 23:15:03 ESP12E-S1 3.20 1.59 77.30
514 2018-12-12 22:46:48 ESP12E-S1 3.20 1.59 77.10
513 2018-12-12 22:18:33 ESP12E-S1 3.20 1.56 76.00
512 2018-12-12 21:50:18 ESP12E-S1 3.30 1.66 75.50
511 2018-12-12 21:22:06 ESP12E-S1 3.30 1.63 74.50
510 2018-12-12 20:53:53 ESP12E-S1 3.40 1.69 72.60
509 2018-12-12 20:25:38 ESP12E-S1 3.40 1.65 71.10
508 2018-12-12 19:57:24 ESP12E-S1 3.40 1.67 71.60
507 2018-12-12 19:29:09 ESP12E-S1 3.50 1.78 71.90
506 2018-12-12 19:00:59 ESP12E-S1 3.40 1.69 72.70
505 2018-12-12 18:32:43 ESP12E-S1 3.40 1.70 72.80
504 2018-12-12 18:04:30 ESP12E-S1 3.80 2.16 73.80
503 2018-12-12 17:36:17 ESP12E-S1 3.90 2.27 73.80
502 2018-12-12 17:08:02 ESP12E-S1 4.20 2.57 72.60
501 2018-12-12 16:39:48 ESP12E-S1 4.40 2.73 70.40
500 2018-12-12 16:11:35 ESP12E-S1 4.60 2.98 71.50
499 2018-12-12 15:43:22 ESP12E-S1 5.00 3.37 69.50
498 2018-12-12 15:15:11 ESP12E-S1 5.50 3.88 67.90
497 2018-12-12 14:47:03 ESP12E-S1 6.90 5.33 64.60
496 2018-12-12 14:18:47 ESP12E-S1 7.40 5.90 65.40
495 2018-12-12 13:50:27 ESP12E-S1 6.60 5.05 66.30
494 2018-12-12 13:22:07 ESP12E-S1 6.30 4.83 70.80
493 2018-12-12 12:53:49 ESP12E-S1 5.60 4.13 73.50
492 2018-12-12 12:25:32 ESP12E-S1 5.10 3.57 72.80
491 2018-12-12 11:57:14 ESP12E-S1 4.80 3.28 74.30
490 2018-12-12 11:28:56 ESP12E-S1 4.60 3.05 74.20
489 2018-12-12 11:00:39 ESP12E-S1 4.20 2.65 75.50
488 2018-12-12 10:32:18 ESP12E-S1 3.60 2.04 77.50
487 2018-12-12 10:04:09 ESP12E-S1 3.30 1.66 75.60
486 2018-12-12 09:35:50 ESP12E-S1 3.00 1.31 75.00
485 2018-12-12 09:07:33 ESP12E-S1 3.10 1.42 75.00
484 2018-12-12 08:39:18 ESP12E-S1 3.00 1.30 74.50
483 2018-12-12 08:11:04 ESP12E-S1 3.10 1.46 76.50
482 2018-12-12 07:42:49 ESP12E-S1 3.20 1.71 81.80
481 2018-12-12 07:14:34 ESP12E-S1 3.20 1.73 82.70
480 2018-12-12 06:46:19 ESP12E-S1 3.30 1.87 83.50
479 2018-12-12 06:18:04 ESP12E-S1 3.30 1.87 83.70
478 2018-12-12 05:50:00 ESP12E-S1 3.10 1.70 85.50
477 2018-12-12 05:21:42 ESP12E-S1 3.20 1.78 84.50
476 2018-12-12 04:53:26 ESP12E-S1 3.30 1.84 82.50
475 2018-12-12 04:25:11 ESP12E-S1 3.30 1.81 81.30
474 2018-12-12 03:56:57 ESP12E-S1 3.30 1.83 82.10
473 2018-12-12 03:28:42 ESP12E-S1 3.40 1.96 82.80
472 2018-12-12 03:00:26 ESP12E-S1 3.40 2.01 84.70
471 2018-12-12 02:32:11 ESP12E-S1 3.40 2.03 85.60
470 2018-12-12 02:03:55 ESP12E-S1 3.40 2.03 85.50
469 2018-12-12 01:35:39 ESP12E-S1 3.40 2.03 85.70
468 2018-12-12 01:07:24 ESP12E-S1 3.40 2.05 86.20
467 2018-12-12 00:39:09 ESP12E-S1 3.40 2.06 86.80
466 2018-12-12 00:10:55 ESP12E-S1 3.40 2.04 86.10
465 2018-12-11 23:42:42 ESP12E-S1 3.40 2.04 86.00
464 2018-12-11 23:14:27 ESP12E-S1 3.30 1.93 85.80
463 2018-12-11 22:46:11 ESP12E-S1 3.30 1.92 85.50
462 2018-12-11 22:17:56 ESP12E-S1 3.30 1.92 85.70
461 2018-12-11 21:49:41 ESP12E-S1 3.20 1.82 85.90
460 2018-12-11 21:21:26 ESP12E-S1 3.20 1.85 87.10
459 2018-12-11 20:53:11 ESP12E-S1 3.20 1.85 87.10
458 2018-12-11 20:24:57 ESP12E-S1 3.20 1.85 87.00
457 2018-12-11 19:56:48 ESP12E-S1 3.20 1.84 86.60
456 2018-12-11 19:28:31 ESP12E-S1 3.20 1.83 86.50
455 2018-12-11 19:00:16 ESP12E-S1 3.50 2.16 86.50
454 2018-12-11 18:32:01 ESP12E-S1 3.60 2.22 84.30
453 2018-12-11 18:03:49 ESP12E-S1 3.90 2.51 82.90
452 2018-12-11 17:35:36 ESP12E-S1 4.00 2.61 82.70
451 2018-12-11 17:07:32 ESP12E-S1 4.20 2.79 80.80
450 2018-12-11 16:39:07 ESP12E-S1 4.40 2.94 78.40
449 2018-12-11 16:10:24 ESP12E-S1 5.50 4.16 78.70
448 2018-12-11 15:41:57 ESP12E-S1 6.60 5.26 74.30
447 2018-12-11 15:13:41 ESP12E-S1 7.60 6.27 71.20
446 2018-12-11 14:45:35 ESP12E-S1 7.40 6.09 72.50
445 2018-12-11 14:17:36 ESP12E-S1 7.90 6.62 71.70
444 2018-12-11 13:49:26 ESP12E-S1 9.30 8.11 69.90
443 2018-12-11 13:20:53 ESP12E-S1 7.70 6.56 78.00
442 2018-12-11 12:52:48 ESP12E-S1 7.40 6.23 78.00
441 2018-12-11 12:24:34 ESP12E-S1 6.10 4.81 78.30
440 2018-12-11 11:56:29 ESP12E-S1 8.50 7.30 72.70
439 2018-12-11 11:27:57 ESP12E-S1 5.80 4.60 82.80
438 2018-12-11 10:59:30 ESP12E-S1 3.80 2.53 87.70
437 2018-12-11 10:31:18 ESP12E-S1 4.10 2.83 86.80
436 2018-12-11 10:03:01 ESP12E-S1 3.60 2.31 87.90
435 2018-12-11 09:34:45 ESP12E-S1 3.50 2.22 88.50
434 2018-12-11 09:06:29 ESP12E-S1 3.40 2.11 88.50
433 2018-12-11 08:38:14 ESP12E-S1 3.30 2.01 89.20
432 2018-12-11 08:09:58 ESP12E-S1 3.40 2.13 89.50
431 2018-12-11 07:41:43 ESP12E-S1 3.50 2.22 88.70
430 2018-12-11 07:13:27 ESP12E-S1 3.30 2.00 88.70
429 2018-12-11 06:45:14 ESP12E-S1 3.30 2.01 89.10
428 2018-12-11 06:16:59 ESP12E-S1 3.10 1.82 90.20
427 2018-12-11 05:48:44 ESP12E-S1 3.10 1.81 89.90
426 2018-12-11 05:20:31 ESP12E-S1 3.10 1.79 89.10
425 2018-12-11 04:52:25 ESP12E-S1 3.20 1.90 89.10
424 2018-12-11 04:24:07 ESP12E-S1 3.20 1.90 88.90
423 2018-12-11 03:55:49 ESP12E-S1 3.10 1.79 89.20
422 2018-12-11 03:27:35 ESP12E-S1 3.10 1.80 89.40
421 2018-12-11 02:59:20 ESP12E-S1 3.00 1.69 89.30
420 2018-12-11 02:31:05 ESP12E-S1 3.10 1.78 88.80
419 2018-12-11 02:02:50 ESP12E-S1 2.90 1.53 87.60
418 2018-12-11 01:34:35 ESP12E-S1 3.00 1.64 87.30
417 2018-12-11 01:06:20 ESP12E-S1 3.00 1.65 87.70
416 2018-12-11 00:38:04 ESP12E-S1 3.10 1.75 87.40
415 2018-12-11 00:09:49 ESP12E-S1 3.00 1.64 87.40
414 2018-12-10 23:41:33 ESP12E-S1 3.00 1.64 87.50
413 2018-12-10 23:13:19 ESP12E-S1 3.00 1.64 87.50
412 2018-12-10 22:45:04 ESP12E-S1 2.90 1.53 87.30
411 2018-12-10 22:16:49 ESP12E-S1 3.00 1.64 87.60
410 2018-12-10 21:48:33 ESP12E-S1 2.90 1.53 87.60
409 2018-12-10 21:20:20 ESP12E-S1 2.90 1.54 87.90
408 2018-12-10 20:52:07 ESP12E-S1 2.80 1.42 87.40
407 2018-12-10 20:23:52 ESP12E-S1 3.00 1.63 87.00
406 2018-12-10 19:55:40 ESP12E-S1 3.20 1.82 86.00
405 2018-12-10 19:27:25 ESP12E-S1 3.60 2.25 85.40
404 2018-12-10 18:59:12 ESP12E-S1 3.70 2.38 86.30
403 2018-12-10 18:30:58 ESP12E-S1 3.80 2.48 85.80
402 2018-12-10 18:03:01 ESP12E-S1 4.00 2.69 85.40
401 2018-12-10 17:34:40 ESP12E-S1 4.10 2.83 86.80
400 2018-12-10 17:06:26 ESP12E-S1 4.20 2.92 86.10
399 2018-12-10 16:38:12 ESP12E-S1 4.20 2.96 87.30
398 2018-12-10 16:09:59 ESP12E-S1 4.30 3.06 87.20
397 2018-12-10 15:41:45 ESP12E-S1 4.70 3.48 86.40
396 2018-12-10 15:13:37 ESP12E-S1 4.80 3.58 85.80
395 2018-12-10 14:45:19 ESP12E-S1 5.00 3.78 85.20
394 2018-12-10 14:17:05 ESP12E-S1 5.00 3.75 84.20
393 2018-12-10 13:48:55 ESP12E-S1 5.10 3.87 84.40
392 2018-12-10 13:20:43 ESP12E-S1 5.40 4.16 83.00
391 2018-12-10 12:52:41 ESP12E-S1 5.80 4.56 81.20
390 2018-12-10 12:24:24 ESP12E-S1 6.10 4.87 80.50
389 2018-12-10 11:56:17 ESP12E-S1 7.80 6.63 76.20
388 2018-12-10 11:28:08 ESP12E-S1 6.80 5.58 78.30
387 2018-12-10 10:59:47 ESP12E-S1 5.80 4.59 82.40
386 2018-12-10 10:31:28 ESP12E-S1 6.00 4.84 83.80
385 2018-12-10 10:03:06 ESP12E-S1 4.50 3.32 88.50
384 2018-12-10 09:34:51 ESP12E-S1 4.40 3.19 87.90
383 2018-12-10 09:06:36 ESP12E-S1 4.20 2.98 88.20
382 2018-12-10 08:38:20 ESP12E-S1 4.10 2.87 88.20
381 2018-12-10 08:10:24 ESP12E-S1 4.10 2.89 89.00
380 2018-12-10 07:42:02 ESP12E-S1 4.20 2.95 87.20
379 2018-12-10 07:13:47 ESP12E-S1 4.20 2.96 87.60
378 2018-12-10 06:45:32 ESP12E-S1 4.20 2.97 87.90
377 2018-12-10 06:17:17 ESP12E-S1 4.20 2.95 87.10
376 2018-12-10 05:49:01 ESP12E-S1 4.20 2.95 87.20
375 2018-12-10 05:20:47 ESP12E-S1 4.20 2.96 87.30
374 2018-12-10 04:52:32 ESP12E-S1 4.10 2.89 89.20
373 2018-12-10 04:24:17 ESP12E-S1 4.10 2.86 87.90
372 2018-12-10 03:56:05 ESP12E-S1 4.30 3.03 86.00
371 2018-12-10 03:27:53 ESP12E-S1 4.70 3.51 87.50
370 2018-12-10 02:59:37 ESP12E-S1 4.80 3.62 87.40
369 2018-12-10 02:31:23 ESP12E-S1 4.90 3.75 88.30
368 2018-12-10 02:03:07 ESP12E-S1 4.90 3.76 88.80
367 2018-12-10 01:34:53 ESP12E-S1 5.10 3.97 88.40
366 2018-12-10 01:06:39 ESP12E-S1 5.20 4.08 88.30
365 2018-12-10 00:38:26 ESP12E-S1 5.40 4.31 88.50
364 2018-12-10 00:10:11 ESP12E-S1 5.50 4.39 87.40
363 2018-12-09 23:41:55 ESP12E-S1 5.40 4.29 87.70
362 2018-12-09 23:13:42 ESP12E-S1 5.50 4.40 87.90
361 2018-12-09 22:45:27 ESP12E-S1 5.70 4.67 89.60
360 2018-12-09 22:17:11 ESP12E-S1 5.70 4.67 89.70
359 2018-12-09 21:48:56 ESP12E-S1 5.80 4.79 90.10
358 2018-12-09 21:20:42 ESP12E-S1 5.90 4.90 90.00
357 2018-12-09 20:52:32 ESP12E-S1 6.10 5.13 90.40
356 2018-12-09 20:24:17 ESP12E-S1 6.10 5.13 90.60
355 2018-12-09 19:56:00 ESP12E-S1 6.10 5.14 91.10
354 2018-12-09 19:27:45 ESP12E-S1 6.00 5.01 90.30
353 2018-12-09 18:59:29 ESP12E-S1 6.10 5.13 90.60
352 2018-12-09 18:31:13 ESP12E-S1 6.00 5.02 90.40
351 2018-12-09 18:02:57 ESP12E-S1 5.90 4.91 90.60
350 2018-12-09 17:34:44 ESP12E-S1 5.80 4.78 89.70
349 2018-12-09 17:06:29 ESP12E-S1 6.10 5.09 89.10
348 2018-12-09 16:38:16 ESP12E-S1 6.30 5.34 90.20
347 2018-12-09 16:10:02 ESP12E-S1 6.30 5.34 90.30
346 2018-12-09 15:41:55 ESP12E-S1 6.20 5.23 90.20
345 2018-12-09 15:13:36 ESP12E-S1 6.00 4.99 89.40
344 2018-12-09 14:45:23 ESP12E-S1 6.10 5.05 87.50
343 2018-12-09 14:17:14 ESP12E-S1 7.00 6.00 85.90
342 2018-12-09 13:49:03 ESP12E-S1 7.80 6.95 88.50
341 2018-12-09 13:20:47 ESP12E-S1 7.40 6.52 89.20
340 2018-12-09 12:52:33 ESP12E-S1 7.60 6.69 87.00
339 2018-12-09 12:24:20 ESP12E-S1 8.30 7.36 83.40
338 2018-12-09 11:56:07 ESP12E-S1 8.20 7.18 80.70
337 2018-12-09 11:27:47 ESP12E-S1 8.00 6.98 81.40
336 2018-12-09 10:59:31 ESP12E-S1 7.40 6.39 84.20
335 2018-12-09 10:31:16 ESP12E-S1 7.40 6.47 87.30
334 2018-12-09 10:03:02 ESP12E-S1 7.70 6.65 81.30
333 2018-12-09 09:34:50 ESP12E-S1 8.10 7.02 78.80
332 2018-12-09 09:06:27 ESP12E-S1 7.10 6.05 83.80
331 2018-12-09 08:38:10 ESP12E-S1 6.80 5.81 87.00
330 2018-12-09 08:09:55 ESP12E-S1 6.70 5.65 85.20
329 2018-12-09 07:41:44 ESP12E-S1 6.60 5.58 86.70
328 2018-12-09 07:13:27 ESP12E-S1 6.70 5.66 85.50
327 2018-12-09 06:45:13 ESP12E-S1 6.60 5.49 83.40
326 2018-12-09 06:16:58 ESP12E-S1 6.60 5.51 84.20
325 2018-12-09 05:48:44 ESP12E-S1 6.60 5.59 87.20
324 2018-12-09 05:20:41 ESP12E-S1 6.90 5.90 86.30
323 2018-12-09 04:52:22 ESP12E-S1 7.00 5.95 84.00
322 2018-12-09 04:24:09 ESP12E-S1 7.10 6.02 82.40
321 2018-12-09 03:55:55 ESP12E-S1 7.30 6.26 83.20
320 2018-12-09 03:27:41 ESP12E-S1 7.40 6.56 90.40
319 2018-12-09 02:59:27 ESP12E-S1 7.50 6.62 88.60
318 2018-12-09 02:31:10 ESP12E-S1 7.50 6.63 89.20
317 2018-12-09 02:02:54 ESP12E-S1 7.30 6.44 90.20
316 2018-12-09 01:34:39 ESP12E-S1 7.40 6.55 90.30
315 2018-12-09 01:06:24 ESP12E-S1 7.60 6.82 92.00
314 2018-12-09 00:38:06 ESP12E-S1 7.40 6.66 94.30
313 2018-12-09 00:09:51 ESP12E-S1 7.70 7.01 95.30
312 2018-12-08 23:41:39 ESP12E-S1 7.50 6.79 95.20
311 2018-12-08 23:13:22 ESP12E-S1 7.40 6.67 94.90
310 2018-12-08 22:45:06 ESP12E-S1 7.30 6.55 94.50
309 2018-12-08 22:16:51 ESP12E-S1 7.10 6.33 94.40
308 2018-12-08 21:48:36 ESP12E-S1 7.00 6.21 94.00
307 2018-12-08 21:20:21 ESP12E-S1 6.90 6.09 93.70
306 2018-12-08 20:52:07 ESP12E-S1 6.80 5.97 93.10
305 2018-12-08 20:24:02 ESP12E-S1 6.90 6.06 92.30
304 2018-12-08 19:55:45 ESP12E-S1 7.00 6.14 91.30
303 2018-12-08 19:27:37 ESP12E-S1 6.90 6.02 90.90
302 2018-12-08 18:59:37 ESP12E-S1 6.70 5.81 91.20
301 2018-12-08 18:31:14 ESP12E-S1 6.70 5.81 91.30
300 2018-12-08 18:03:01 ESP12E-S1 6.60 5.69 91.10
299 2018-12-08 17:34:47 ESP12E-S1 6.60 5.68 90.60
298 2018-12-08 17:06:33 ESP12E-S1 6.80 5.89 90.00
297 2018-12-08 16:38:19 ESP12E-S1 6.90 5.99 89.60
296 2018-12-08 16:10:05 ESP12E-S1 7.00 6.08 88.90
295 2018-12-08 15:41:51 ESP12E-S1 7.30 6.36 87.10
294 2018-12-08 15:13:39 ESP12E-S1 7.70 6.77 86.10
293 2018-12-08 14:45:23 ESP12E-S1 7.50 6.58 87.00
292 2018-12-08 14:17:07 ESP12E-S1 7.20 6.25 87.00
291 2018-12-08 13:48:51 ESP12E-S1 7.20 6.25 87.30
290 2018-12-08 13:20:36 ESP12E-S1 7.10 6.18 88.70
289 2018-12-08 12:52:18 ESP12E-S1 6.80 5.89 90.30
288 2018-12-08 12:24:01 ESP12E-S1 6.30 5.36 91.00
287 2018-12-08 11:55:45 ESP12E-S1 6.00 5.03 91.10
286 2018-12-08 11:27:28 ESP12E-S1 5.70 4.70 90.80
285 2018-12-08 10:59:12 ESP12E-S1 5.80 4.79 90.20
284 2018-12-08 10:30:57 ESP12E-S1 5.50 4.46 90.00
283 2018-12-08 10:02:44 ESP12E-S1 5.50 4.46 90.20
282 2018-12-08 09:34:27 ESP12E-S1 5.40 4.35 90.10
281 2018-12-08 09:06:14 ESP12E-S1 5.50 4.41 88.10
280 2018-12-08 08:37:59 ESP12E-S1 5.50 4.41 88.10
279 2018-12-08 08:09:49 ESP12E-S1 5.30 4.20 88.70
278 2018-12-08 07:41:32 ESP12E-S1 5.30 4.22 89.40
277 2018-12-08 07:13:18 ESP12E-S1 5.30 4.22 89.30
276 2018-12-08 06:45:04 ESP12E-S1 5.30 4.17 87.30
275 2018-12-08 06:16:48 ESP12E-S1 5.30 4.13 86.00
274 2018-12-08 05:48:33 ESP12E-S1 5.20 4.02 86.00
273 2018-12-08 05:20:19 ESP12E-S1 5.40 4.27 87.00
272 2018-12-08 04:52:05 ESP12E-S1 5.70 4.57 85.80
271 2018-12-08 04:23:54 ESP12E-S1 5.80 4.59 82.70
270 2018-12-08 03:55:39 ESP12E-S1 5.80 4.55 81.10
269 2018-12-08 03:27:24 ESP12E-S1 5.90 4.68 81.90
268 2018-12-08 02:59:10 ESP12E-S1 6.00 4.79 81.70
267 2018-12-08 02:30:55 ESP12E-S1 5.90 4.64 80.30
266 2018-12-08 02:02:41 ESP12E-S1 5.80 4.55 80.80
265 2018-12-08 01:34:25 ESP12E-S1 5.80 4.53 80.30
264 2018-12-08 01:06:12 ESP12E-S1 5.90 4.67 81.40
263 2018-12-08 00:37:57 ESP12E-S1 5.90 4.68 81.70
262 2018-12-08 00:09:42 ESP12E-S1 5.80 4.60 82.90
261 2018-12-07 23:41:29 ESP12E-S1 6.00 4.82 83.00
260 2018-12-07 23:13:16 ESP12E-S1 6.40 5.23 81.60
259 2018-12-07 22:45:07 ESP12E-S1 6.80 5.75 84.90
258 2018-12-07 22:17:02 ESP12E-S1 7.20 6.25 87.10
257 2018-12-07 21:48:46 ESP12E-S1 7.50 6.61 88.30
256 2018-12-07 21:20:34 ESP12E-S1 8.10 7.26 87.70
255 2018-12-07 20:52:20 ESP12E-S1 8.50 7.80 91.80
254 2018-12-07 20:24:04 ESP12E-S1 8.50 7.86 94.00
253 2018-12-07 19:55:49 ESP12E-S1 8.50 7.84 93.30
252 2018-12-07 19:27:34 ESP12E-S1 8.50 7.83 92.70
251 2018-12-07 18:59:19 ESP12E-S1 8.50 7.82 92.40
250 2018-12-07 18:31:05 ESP12E-S1 8.60 7.92 92.10
249 2018-12-07 18:02:51 ESP12E-S1 8.70 8.03 92.00
248 2018-12-07 17:34:37 ESP12E-S1 8.80 8.14 92.10
247 2018-12-07 17:06:23 ESP12E-S1 9.00 8.34 91.40
246 2018-12-07 16:38:08 ESP12E-S1 9.10 8.45 91.50
245 2018-12-07 16:09:53 ESP12E-S1 9.20 8.57 91.60
244 2018-12-07 15:41:37 ESP12E-S1 9.40 8.78 91.40
243 2018-12-07 15:13:22 ESP12E-S1 9.30 8.66 91.00
242 2018-12-07 14:45:06 ESP12E-S1 9.40 8.79 91.80
241 2018-12-07 14:16:52 ESP12E-S1 9.50 8.91 92.00
240 2018-12-07 13:48:37 ESP12E-S1 9.40 8.80 92.10
239 2018-12-07 13:20:22 ESP12E-S1 9.50 8.90 91.60
238 2018-12-07 12:52:08 ESP12E-S1 9.50 8.91 92.10
237 2018-12-07 12:23:53 ESP12E-S1 9.50 8.93 92.70
236 2018-12-07 11:55:44 ESP12E-S1 9.50 8.92 92.60
235 2018-12-07 11:27:27 ESP12E-S1 9.50 8.93 92.70
234 2018-12-07 10:59:13 ESP12E-S1 9.60 9.03 92.60
233 2018-12-07 10:30:56 ESP12E-S1 9.60 9.02 91.90
232 2018-12-07 10:02:42 ESP12E-S1 9.60 9.02 92.00
231 2018-12-07 09:34:26 ESP12E-S1 9.60 9.03 92.50
230 2018-12-07 09:06:10 ESP12E-S1 9.60 9.05 93.20
229 2018-12-07 08:37:54 ESP12E-S1 9.70 9.16 93.10
228 2018-12-07 08:09:41 ESP12E-S1 9.70 9.16 93.30
227 2018-12-07 07:41:25 ESP12E-S1 9.90 9.39 93.50
226 2018-12-07 07:13:09 ESP12E-S1 9.90 9.41 94.30
225 2018-12-07 06:44:55 ESP12E-S1 9.90 9.43 95.30
224 2018-12-07 06:16:38 ESP12E-S1 10.00 9.53 94.90
223 2018-12-07 05:48:23 ESP12E-S1 9.90 9.43 95.00
222 2018-12-07 05:20:07 ESP12E-S1 9.90 9.42 94.90
221 2018-12-07 04:51:51 ESP12E-S1 9.90 9.43 95.10
220 2018-12-07 04:23:36 ESP12E-S1 9.80 9.32 95.30
219 2018-12-07 03:55:20 ESP12E-S1 9.80 9.32 95.30
218 2018-12-07 03:27:04 ESP12E-S1 9.80 9.32 95.00
217 2018-12-07 02:58:48 ESP12E-S1 9.80 9.32 95.30
216 2018-12-07 02:30:33 ESP12E-S1 9.70 9.22 95.50
215 2018-12-07 02:02:17 ESP12E-S1 9.60 9.11 95.40
214 2018-12-07 01:34:03 ESP12E-S1 9.60 9.10 95.30
213 2018-12-07 01:05:47 ESP12E-S1 9.50 8.99 95.20
212 2018-12-07 00:37:31 ESP12E-S1 9.40 8.88 95.00
211 2018-12-07 00:09:16 ESP12E-S1 9.40 8.87 94.80
210 2018-12-06 23:41:01 ESP12E-S1 9.30 8.75 94.50
209 2018-12-06 23:12:45 ESP12E-S1 9.20 8.64 94.40
208 2018-12-06 22:44:29 ESP12E-S1 9.20 8.64 94.50
207 2018-12-06 22:16:12 ESP12E-S1 9.10 8.53 94.50
206 2018-12-06 21:47:58 ESP12E-S1 9.00 8.43 94.60
205 2018-12-06 21:19:41 ESP12E-S1 8.90 8.31 94.30
204 2018-12-06 20:51:25 ESP12E-S1 8.80 8.20 94.40
203 2018-12-06 20:23:11 ESP12E-S1 8.80 8.20 94.20
202 2018-12-06 19:54:56 ESP12E-S1 8.70 8.09 94.20
201 2018-12-06 19:26:39 ESP12E-S1 8.60 7.97 93.90
200 2018-12-06 18:58:23 ESP12E-S1 8.60 7.97 93.90
199 2018-12-06 18:30:07 ESP12E-S1 8.60 7.96 93.80
198 2018-12-06 18:01:52 ESP12E-S1 8.60 7.97 94.00
197 2018-12-06 17:33:36 ESP12E-S1 8.60 7.96 93.70
196 2018-12-06 17:05:20 ESP12E-S1 8.50 7.86 94.00
195 2018-12-06 16:37:05 ESP12E-S1 8.60 7.97 94.10
194 2018-12-06 16:08:49 ESP12E-S1 8.50 7.86 94.10
193 2018-12-06 15:40:34 ESP12E-S1 8.40 7.74 93.80
192 2018-12-06 15:12:19 ESP12E-S1 8.30 7.63 93.60
191 2018-12-06 14:44:05 ESP12E-S1 8.20 7.51 93.40
190 2018-12-06 14:15:48 ESP12E-S1 8.10 7.40 93.20
189 2018-12-06 13:47:43 ESP12E-S1 8.00 7.27 92.60
188 2018-12-06 13:19:25 ESP12E-S1 8.00 7.27 92.30
187 2018-12-06 12:51:08 ESP12E-S1 7.40 6.61 92.60
186 2018-12-06 12:23:01 ESP12E-S1 7.30 6.49 91.90
185 2018-12-06 11:54:41 ESP12E-S1 6.90 6.05 91.90
184 2018-12-06 11:26:26 ESP12E-S1 6.70 5.82 91.70
183 2018-12-06 10:58:11 ESP12E-S1 6.60 5.71 91.80
182 2018-12-06 10:29:55 ESP12E-S1 6.60 5.70 91.40
181 2018-12-06 10:01:41 ESP12E-S1 6.50 5.59 91.40
180 2018-12-06 09:33:26 ESP12E-S1 6.50 5.60 91.70
179 2018-12-06 09:05:10 ESP12E-S1 6.30 5.38 91.60
178 2018-12-06 08:36:55 ESP12E-S1 6.10 5.15 91.50
177 2018-12-06 08:08:40 ESP12E-S1 6.00 5.04 91.40
176 2018-12-06 07:40:26 ESP12E-S1 6.10 5.14 90.80
175 2018-12-06 07:12:11 ESP12E-S1 6.00 5.02 90.60
174 2018-12-06 06:43:55 ESP12E-S1 6.00 5.02 90.50
173 2018-12-06 06:15:39 ESP12E-S1 5.80 4.80 90.50
172 2018-12-06 05:47:25 ESP12E-S1 5.70 4.69 90.60
171 2018-12-06 05:19:10 ESP12E-S1 5.70 4.68 90.30
170 2018-12-06 04:50:55 ESP12E-S1 5.80 4.79 90.10
169 2018-12-06 04:22:42 ESP12E-S1 5.80 4.79 90.00
168 2018-12-06 03:54:27 ESP12E-S1 5.90 4.89 89.90
167 2018-12-06 03:26:13 ESP12E-S1 5.90 4.89 89.80
166 2018-12-06 02:57:58 ESP12E-S1 5.90 4.89 89.60
165 2018-12-06 02:29:42 ESP12E-S1 5.70 4.66 89.50
164 2018-12-06 02:01:27 ESP12E-S1 5.60 4.52 88.40
163 2018-12-06 01:33:14 ESP12E-S1 5.60 4.49 87.00
162 2018-12-06 01:05:00 ESP12E-S1 5.60 4.47 86.40
161 2018-12-06 00:36:47 ESP12E-S1 5.50 4.32 84.90
160 2018-12-06 00:08:31 ESP12E-S1 5.50 4.33 85.10
159 2018-12-05 23:40:17 ESP12E-S1 5.40 4.21 84.80
158 2018-12-05 23:12:01 ESP12E-S1 5.30 4.10 85.00
157 2018-12-05 22:43:47 ESP12E-S1 5.30 4.10 84.70
156 2018-12-05 22:15:34 ESP12E-S1 5.30 4.10 84.70
155 2018-12-05 21:47:19 ESP12E-S1 5.20 3.98 84.40
154 2018-12-05 21:19:04 ESP12E-S1 5.10 3.86 83.90
153 2018-12-05 20:50:49 ESP12E-S1 5.10 3.83 83.00
152 2018-12-05 20:22:36 ESP12E-S1 5.10 3.82 82.70
151 2018-12-05 19:54:22 ESP12E-S1 5.10 3.81 82.20
150 2018-12-05 19:26:07 ESP12E-S1 5.10 3.80 81.90
149 2018-12-05 18:57:53 ESP12E-S1 5.20 3.91 81.80
148 2018-12-05 18:29:40 ESP12E-S1 5.30 4.00 81.10
147 2018-12-05 18:01:25 ESP12E-S1 5.20 3.88 80.70
146 2018-12-05 17:33:11 ESP12E-S1 5.30 3.98 80.10
145 2018-12-05 17:04:57 ESP12E-S1 5.40 4.07 79.50
144 2018-12-05 16:36:43 ESP12E-S1 5.40 4.06 79.20
143 2018-12-05 16:08:31 ESP12E-S1 5.80 4.46 77.50
142 2018-12-05 15:40:20 ESP12E-S1 6.50 5.18 75.50
141 2018-12-05 15:12:09 ESP12E-S1 7.20 5.92 74.30
140 2018-12-05 14:44:00 ESP12E-S1 8.30 7.03 70.60
139 2018-12-05 14:15:36 ESP12E-S1 7.30 6.05 75.30
138 2018-12-05 13:47:25 ESP12E-S1 5.90 4.57 77.50
137 2018-12-05 13:19:18 ESP12E-S1 5.90 4.56 77.20
136 2018-12-05 12:51:01 ESP12E-S1 5.70 4.33 76.60
135 2018-12-05 12:22:48 ESP12E-S1 5.70 4.30 75.80
134 2018-12-05 11:54:35 ESP12E-S1 5.90 4.51 75.10
133 2018-12-05 11:26:21 ESP12E-S1 5.90 4.52 75.60
132 2018-12-05 10:58:06 ESP12E-S1 5.70 4.30 75.50
131 2018-12-05 10:30:02 ESP12E-S1 5.70 4.31 76.00
130 2018-12-05 10:01:42 ESP12E-S1 5.20 3.80 77.50
129 2018-12-05 09:33:26 ESP12E-S1 4.90 3.51 78.90
128 2018-12-05 09:05:09 ESP12E-S1 4.40 2.99 80.20
127 2018-12-05 08:36:54 ESP12E-S1 4.20 2.80 81.20
126 2018-12-05 08:08:41 ESP12E-S1 4.00 2.58 81.50
125 2018-12-05 07:40:26 ESP12E-S1 3.80 2.37 81.80
124 2018-12-05 07:12:21 ESP12E-S1 3.60 2.14 81.50
123 2018-12-05 06:44:06 ESP12E-S1 3.80 2.36 81.30
122 2018-12-05 06:15:52 ESP12E-S1 3.90 2.48 81.60
121 2018-12-05 05:47:38 ESP12E-S1 3.80 2.38 82.10
120 2018-12-05 05:19:24 ESP12E-S1 3.60 2.15 81.90
119 2018-12-05 04:51:11 ESP12E-S1 3.20 1.71 81.90
118 2018-12-05 04:22:56 ESP12E-S1 3.00 1.43 79.50
117 2018-12-05 03:54:43 ESP12E-S1 3.10 1.56 80.20
116 2018-12-05 03:26:31 ESP12E-S1 3.30 1.77 79.90
115 2018-12-05 02:58:17 ESP12E-S1 3.40 1.87 79.40
114 2018-12-05 02:30:05 ESP12E-S1 3.60 2.11 80.20
113 2018-12-05 02:01:50 ESP12E-S1 3.80 2.34 80.70
112 2018-12-05 01:33:35 ESP12E-S1 3.80 2.36 81.50
111 2018-12-05 01:05:19 ESP12E-S1 3.50 2.00 80.30
110 2018-12-05 00:37:05 ESP12E-S1 3.50 1.98 79.30
109 2018-12-05 00:08:52 ESP12E-S1 3.40 1.82 77.50
108 2018-12-04 23:40:40 ESP12E-S1 3.70 2.15 77.40
107 2018-12-04 23:12:27 ESP12E-S1 3.90 2.38 78.10
106 2018-12-04 22:44:13 ESP12E-S1 4.10 2.59 77.50
105 2018-12-04 22:16:01 ESP12E-S1 4.10 2.57 76.70
104 2018-12-04 21:47:47 ESP12E-S1 4.20 2.67 76.20
103 2018-12-04 21:19:44 ESP12E-S1 4.40 2.90 76.60
102 2018-12-04 20:51:28 ESP12E-S1 4.60 3.11 76.30
101 2018-12-04 20:23:16 ESP12E-S1 4.80 3.34 76.80
100 2018-12-04 19:55:02 ESP12E-S1 5.10 3.67 76.90
99 2018-12-04 19:26:49 ESP12E-S1 5.20 3.79 77.00
98 2018-12-04 18:58:34 ESP12E-S1 5.30 3.90 77.20
97 2018-12-04 18:30:21 ESP12E-S1 5.40 4.00 76.60
96 2018-12-04 18:02:11 ESP12E-S1 5.70 4.29 75.30
95 2018-12-04 17:34:01 ESP12E-S1 6.30 4.95 75.20
94 2018-12-04 17:05:50 ESP12E-S1 6.90 5.55 73.10
93 2018-12-04 16:37:38 ESP12E-S1 7.40 6.04 70.50
92 2018-12-04 16:09:30 ESP12E-S1 8.30 6.93 66.90
91 2018-12-04 15:41:24 ESP12E-S1 9.80 8.51 64.10
90 2018-12-04 15:13:10 ESP12E-S1 11.00 9.82 63.70
89 2018-12-04 14:44:57 ESP12E-S1 10.90 9.69 63.00
88 2018-12-04 14:16:45 ESP12E-S1 10.90 9.72 64.30
87 2018-12-04 13:48:35 ESP12E-S1 10.70 9.50 64.20
86 2018-12-04 13:20:32 ESP12E-S1 11.90 10.86 65.60
85 2018-12-04 12:52:30 ESP12E-S1 13.90 12.90 59.70
84 2018-12-04 12:23:46 ESP12E-S1 8.90 7.83 76.10
83 2018-12-04 11:55:29 ESP12E-S1 8.50 7.49 79.80
82 2018-12-04 11:27:14 ESP12E-S1 8.30 7.31 81.20
81 2018-12-04 10:58:56 ESP12E-S1 8.20 7.23 82.60
80 2018-12-04 10:30:40 ESP12E-S1 7.70 6.68 82.60
79 2018-12-04 10:02:26 ESP12E-S1 7.80 6.85 84.80
78 2018-12-04 09:34:10 ESP12E-S1 7.40 6.42 85.20
77 2018-12-04 09:05:56 ESP12E-S1 7.20 6.22 85.80
76 2018-12-04 08:37:42 ESP12E-S1 7.10 6.14 87.30
75 2018-12-04 08:09:29 ESP12E-S1 7.00 6.03 87.30
74 2018-12-04 07:41:15 ESP12E-S1 7.00 6.04 87.60
73 2018-12-04 07:13:01 ESP12E-S1 7.00 6.04 87.40
72 2018-12-04 06:44:49 ESP12E-S1 7.20 6.27 87.70
71 2018-12-04 06:16:37 ESP12E-S1 7.50 6.58 87.30
70 2018-12-04 05:48:26 ESP12E-S1 7.80 6.91 87.30
69 2018-12-04 05:20:16 ESP12E-S1 8.00 7.15 87.70
68 2018-12-04 04:52:01 ESP12E-S1 8.40 7.60 88.10
67 2018-12-04 04:23:50 ESP12E-S1 9.00 8.32 90.70
66 2018-12-04 03:55:37 ESP12E-S1 9.10 8.38 88.80
65 2018-12-04 03:27:23 ESP12E-S1 9.20 8.50 89.10
64 2018-12-04 02:59:09 ESP12E-S1 9.20 8.55 90.80
63 2018-12-04 02:30:54 ESP12E-S1 9.20 8.59 92.40
62 2018-12-04 02:02:41 ESP12E-S1 9.30 8.70 92.50
61 2018-12-04 01:34:27 ESP12E-S1 9.30 8.70 92.60
60 2018-12-04 01:06:15 ESP12E-S1 9.40 8.80 92.20
59 2018-12-04 00:38:01 ESP12E-S1 9.40 8.81 92.40
58 2018-12-04 00:09:46 ESP12E-S1 9.40 8.80 92.20
57 2018-12-03 23:41:31 ESP12E-S1 9.30 8.70 92.40
56 2018-12-03 23:13:23 ESP12E-S1 9.30 8.68 91.80
55 2018-12-03 22:45:08 ESP12E-S1 9.40 8.80 92.20
54 2018-12-03 22:17:06 ESP12E-S1 9.60 9.04 92.90
53 2018-12-03 21:48:49 ESP12E-S1 9.80 9.26 93.00
52 2018-12-03 21:20:35 ESP12E-S1 9.80 9.26 93.00
51 2018-12-03 20:52:20 ESP12E-S1 9.90 9.37 92.80
50 2018-12-03 20:24:14 ESP12E-S1 9.90 9.36 92.60
49 2018-12-03 19:55:57 ESP12E-S1 10.00 9.46 92.20
48 2018-12-03 19:27:43 ESP12E-S1 10.00 9.46 92.00
47 2018-12-03 18:59:30 ESP12E-S1 10.10 9.57 92.20
46 2018-12-03 18:31:16 ESP12E-S1 10.10 9.58 92.30
45 2018-12-03 18:03:02 ESP12E-S1 10.10 9.57 92.10
44 2018-12-03 17:35:39 ESP12E-S1 10.10 9.58 92.30
43 2018-12-03 17:06:52 ESP12E-S1 10.10 9.58 92.40
42 2018-12-03 16:38:41 ESP12E-S1 10.20 9.69 92.50
41 2018-12-03 16:10:26 ESP12E-S1 10.30 9.79 92.10
40 2018-12-03 15:42:12 ESP12E-S1 10.40 9.90 92.20
39 2018-12-03 15:13:58 ESP12E-S1 10.40 9.89 91.80
38 2018-12-03 14:45:44 ESP12E-S1 10.60 10.11 91.60
37 2018-12-03 14:17:36 ESP12E-S1 10.40 9.88 91.40
36 2018-12-03 13:49:24 ESP12E-S1 11.10 10.66 91.60
35 2018-12-03 13:21:12 ESP12E-S1 11.30 10.89 92.00
34 2018-12-03 12:52:59 ESP12E-S1 11.40 11.01 92.60
33 2018-12-03 12:24:45 ESP12E-S1 11.40 11.02 92.70
32 2018-12-03 11:56:32 ESP12E-S1 11.50 11.12 92.40
31 2018-12-03 11:28:18 ESP12E-S1 11.40 11.01 92.30
30 2018-12-03 11:00:05 ESP12E-S1 11.70 11.33 92.00
29 2018-12-03 10:31:54 ESP12E-S1 11.90 11.54 91.60
28 2018-12-03 10:03:34 ESP12E-S1 11.60 11.25 93.20
27 2018-12-03 09:35:19 ESP12E-S1 11.10 10.71 93.50
26 2018-12-03 09:07:04 ESP12E-S1 10.70 10.26 93.40
25 2018-12-03 08:38:48 ESP12E-S1 10.60 10.15 93.10
24 2018-12-03 08:10:33 ESP12E-S1 10.40 9.90 92.10
23 2018-12-03 07:42:19 ESP12E-S1 10.30 9.78 91.70
22 2018-12-03 07:14:07 ESP12E-S1 10.40 9.91 92.30
21 2018-12-03 06:45:54 ESP12E-S1 10.40 9.89 91.70
20 2018-12-03 06:17:40 ESP12E-S1 10.50 10.00 91.80
19 2018-12-03 05:49:27 ESP12E-S1 10.40 9.91 92.30
18 2018-12-03 05:21:14 ESP12E-S1 10.30 9.79 92.00
17 2018-12-03 04:53:01 ESP12E-S1 10.30 9.78 91.70
16 2018-12-03 04:24:47 ESP12E-S1 10.30 9.78 91.80
15 2018-12-03 03:56:34 ESP12E-S1 10.20 9.66 91.30
14 2018-12-03 03:28:20 ESP12E-S1 10.20 9.65 90.90
13 2018-12-03 03:00:19 ESP12E-S1 10.20 9.66 91.40
12 2018-12-03 02:32:02 ESP12E-S1 10.40 9.87 91.10
11 2018-12-03 02:03:48 ESP12E-S1 10.60 10.09 91.00
10 2018-12-03 01:35:36 ESP12E-S1 10.60 10.10 91.30
9 2018-12-03 01:07:22 ESP12E-S1 10.60 10.10 91.30
8 2018-12-03 00:39:10 ESP12E-S1 10.60 10.10 91.20
7 2018-12-03 00:10:57 ESP12E-S1 10.60 10.09 90.80
6 2018-12-02 23:42:43 ESP12E-S1 10.60 10.10 91.30
5 2018-12-02 23:14:30 ESP12E-S1 10.60 10.06 89.60
4 2018-12-02 22:46:27 ESP12E-S1 10.60 10.02 88.40
3 2018-12-02 22:18:19 ESP12E-S1 10.70 10.10 87.20
2 2018-12-02 21:50:08 ESP12E-S1 11.00 10.43 87.00
1 2018-12-02 21:22:02 ESP12E-S1 11.50 10.92 84.70